sensor_id;sensor_type;location;lat;lon;timestamp;temperature;humidity
26164;DHT22;13914;48.178;11.716;2022-12-18T00:01:22;-3.40;99.90
26164;DHT22;13914;48.178;11.716;2022-12-18T00:04:01;-3.40;99.90
26164;DHT22;13914;48.178;11.716;2022-12-18T00:06:31;-3.40;99.90
26164;DHT22;13914;48.178;11.716;2022-12-18T00:08:59;-3.40;99.90
26164;DHT22;13914;48.178;11.716;2022-12-18T00:11:26;-3.40;99.90
26164;DHT22;13914;48.178;11.716;2022-12-18T00:13:54;-3.50;99.90
26164;DHT22;13914;48.178;11.716;2022-12-18T00:16:22;-3.50;99.90
26164;DHT22;13914;48.178;11.716;2022-12-18T00:18:49;-3.50;99.90
26164;DHT22;13914;48.178;11.716;2022-12-18T00:21:15;-3.50;99.90
26164;DHT22;13914;48.178;11.716;2022-12-18T00:23:42;-3.50;99.90
26164;DHT22;13914;48.178;11.716;2022-12-18T00:26:10;-3.50;99.90
26164;DHT22;13914;48.178;11.716;2022-12-18T00:28:41;-3.60;99.90
26164;DHT22;13914;48.178;11.716;2022-12-18T00:31:09;-3.60;99.90
26164;DHT22;13914;48.178;11.716;2022-12-18T00:33:36;-3.60;99.90
26164;DHT22;13914;48.178;11.716;2022-12-18T00:36:03;-3.60;99.90
26164;DHT22;13914;48.178;11.716;2022-12-18T00:38:33;-3.60;99.90
26164;DHT22;13914;48.178;11.716;2022-12-18T00:40:59;-3.60;99.90
26164;DHT22;13914;48.178;11.716;2022-12-18T00:43:25;-3.70;99.90
26164;DHT22;13914;48.178;11.716;2022-12-18T00:45:50;-3.70;99.90
26164;DHT22;13914;48.178;11.716;2022-12-18T00:48:16;-3.70;99.90
26164;DHT22;13914;48.178;11.716;2022-12-18T00:50:42;-3.70;99.90
26164;DHT22;13914;48.178;11.716;2022-12-18T00:53:11;-3.70;99.90
26164;DHT22;13914;48.178;11.716;2022-12-18T00:55:37;-3.70;99.90
26164;DHT22;13914;48.178;11.716;2022-12-18T00:58:04;-3.70;99.90
26164;DHT22;13914;48.178;11.716;2022-12-18T01:00:30;-3.70;99.90
26164;DHT22;13914;48.178;11.716;2022-12-18T01:02:55;-3.80;99.90
26164;DHT22;13914;48.178;11.716;2022-12-18T01:05:21;-3.80;99.90
26164;DHT22;13914;48.178;11.716;2022-12-18T01:07:46;-3.80;99.90
26164;DHT22;13914;48.178;11.716;2022-12-18T01:10:12;-3.80;99.90
26164;DHT22;13914;48.178;11.716;2022-12-18T01:12:38;-3.80;99.90
26164;DHT22;13914;48.178;11.716;2022-12-18T01:15:04;-3.80;99.90
26164;DHT22;13914;48.178;11.716;2022-12-18T01:17:31;-3.80;99.90
26164;DHT22;13914;48.178;11.716;2022-12-18T01:19:56;-3.80;99.90
26164;DHT22;13914;48.178;11.716;2022-12-18T01:22:22;-3.80;99.90
26164;DHT22;13914;48.178;11.716;2022-12-18T01:24:48;-3.80;99.90
26164;DHT22;13914;48.178;11.716;2022-12-18T01:27:13;-3.80;99.90
26164;DHT22;13914;48.178;11.716;2022-12-18T01:29:39;-3.80;99.90
26164;DHT22;13914;48.178;11.716;2022-12-18T01:32:05;-3.80;99.90
26164;DHT22;13914;48.178;11.716;2022-12-18T01:34:30;-3.80;99.90
26164;DHT22;13914;48.178;11.716;2022-12-18T01:36:56;-3.90;99.90
26164;DHT22;13914;48.178;11.716;2022-12-18T01:39:22;-3.80;99.90
26164;DHT22;13914;48.178;11.716;2022-12-18T01:41:48;-3.90;99.90
26164;DHT22;13914;48.178;11.716;2022-12-18T01:49:52;-3.90;99.90
26164;DHT22;13914;48.178;11.716;2022-12-18T01:52:18;-3.90;99.90
26164;DHT22;13914;48.178;11.716;2022-12-18T01:54:46;-3.90;99.90
26164;DHT22;13914;48.178;11.716;2022-12-18T01:57:12;-3.90;99.90
26164;DHT22;13914;48.178;11.716;2022-12-18T01:59:38;-3.90;99.90
26164;DHT22;13914;48.178;11.716;2022-12-18T02:02:05;-3.90;99.90
26164;DHT22;13914;48.178;11.716;2022-12-18T02:04:31;-3.90;99.90
26164;DHT22;13914;48.178;11.716;2022-12-18T02:09:48;-3.90;99.90
26164;DHT22;13914;48.178;11.716;2022-12-18T02:12:25;-3.90;99.90
26164;DHT22;13914;48.178;11.716;2022-12-18T02:17:30;-3.90;99.90
26164;DHT22;13914;48.178;11.716;2022-12-18T02:27:53;-4.00;99.90
26164;DHT22;13914;48.178;11.716;2022-12-18T02:30:19;-3.90;99.90
26164;DHT22;13914;48.178;11.716;2022-12-18T02:32:46;-4.00;99.90
26164;DHT22;13914;48.178;11.716;2022-12-18T02:35:17;-3.90;99.90
26164;DHT22;13914;48.178;11.716;2022-12-18T02:37:46;-3.90;99.90
26164;DHT22;13914;48.178;11.716;2022-12-18T02:40:12;-3.90;99.90
26164;DHT22;13914;48.178;11.716;2022-12-18T02:42:39;-3.90;99.90
26164;DHT22;13914;48.178;11.716;2022-12-18T02:45:05;-4.00;99.90
26164;DHT22;13914;48.178;11.716;2022-12-18T02:47:32;-4.00;99.90
26164;DHT22;13914;48.178;11.716;2022-12-18T02:50:08;-4.00;99.90
26164;DHT22;13914;48.178;11.716;2022-12-18T02:53:26;-4.00;99.90
26164;DHT22;13914;48.178;11.716;2022-12-18T02:56:10;-4.00;99.90
26164;DHT22;13914;48.178;11.716;2022-12-18T03:01:16;-4.00;99.90
26164;DHT22;13914;48.178;11.716;2022-12-18T03:03:48;-4.00;99.90
26164;DHT22;13914;48.178;11.716;2022-12-18T03:06:28;-4.00;99.90
26164;DHT22;13914;48.178;11.716;2022-12-18T03:09:06;-4.00;99.90
26164;DHT22;13914;48.178;11.716;2022-12-18T03:11:34;-4.00;99.90
26164;DHT22;13914;48.178;11.716;2022-12-18T03:14:21;-4.00;99.90
26164;DHT22;13914;48.178;11.716;2022-12-18T03:16:49;-4.00;99.90
26164;DHT22;13914;48.178;11.716;2022-12-18T03:19:17;-4.00;99.90
26164;DHT22;13914;48.178;11.716;2022-12-18T03:21:46;-4.00;99.90
26164;DHT22;13914;48.178;11.716;2022-12-18T03:24:14;-4.00;99.90
26164;DHT22;13914;48.178;11.716;2022-12-18T03:26:41;-4.00;99.90
26164;DHT22;13914;48.178;11.716;2022-12-18T03:29:12;-4.00;99.90
26164;DHT22;13914;48.178;11.716;2022-12-18T03:31:42;-4.00;99.90
26164;DHT22;13914;48.178;11.716;2022-12-18T03:34:13;-4.00;99.90
26164;DHT22;13914;48.178;11.716;2022-12-18T03:36:45;-4.00;99.90
26164;DHT22;13914;48.178;11.716;2022-12-18T03:39:10;-4.00;99.90
26164;DHT22;13914;48.178;11.716;2022-12-18T03:41:39;-4.00;99.90
26164;DHT22;13914;48.178;11.716;2022-12-18T03:46:41;-4.00;99.90
26164;DHT22;13914;48.178;11.716;2022-12-18T03:49:21;-4.00;99.90
26164;DHT22;13914;48.178;11.716;2022-12-18T03:52:04;-4.00;99.90
26164;DHT22;13914;48.178;11.716;2022-12-18T03:54:34;-4.00;99.90
26164;DHT22;13914;48.178;11.716;2022-12-18T03:57:09;-4.00;99.90
26164;DHT22;13914;48.178;11.716;2022-12-18T03:59:38;-4.00;99.90
26164;DHT22;13914;48.178;11.716;2022-12-18T04:02:04;-4.00;99.90
26164;DHT22;13914;48.178;11.716;2022-12-18T04:04:31;-4.00;99.90
26164;DHT22;13914;48.178;11.716;2022-12-18T04:06:59;-4.00;99.90
26164;DHT22;13914;48.178;11.716;2022-12-18T04:09:24;-4.00;99.90
26164;DHT22;13914;48.178;11.716;2022-12-18T04:11:51;-4.00;99.90
26164;DHT22;13914;48.178;11.716;2022-12-18T04:14:17;-4.00;99.90
26164;DHT22;13914;48.178;11.716;2022-12-18T04:16:42;-4.00;99.90
26164;DHT22;13914;48.178;11.716;2022-12-18T04:19:08;-4.00;99.90
26164;DHT22;13914;48.178;11.716;2022-12-18T04:21:34;-4.00;99.90
26164;DHT22;13914;48.178;11.716;2022-12-18T04:23:59;-4.00;99.90
26164;DHT22;13914;48.178;11.716;2022-12-18T04:26:25;-4.00;99.90
26164;DHT22;13914;48.178;11.716;2022-12-18T04:28:51;-4.00;99.90
26164;DHT22;13914;48.178;11.716;2022-12-18T04:31:16;-4.00;99.90
26164;DHT22;13914;48.178;11.716;2022-12-18T04:33:42;-4.00;99.90
26164;DHT22;13914;48.178;11.716;2022-12-18T04:36:08;-4.00;99.90
26164;DHT22;13914;48.178;11.716;2022-12-18T04:38:33;-4.00;99.90
26164;DHT22;13914;48.178;11.716;2022-12-18T04:40:59;-4.00;99.90
26164;DHT22;13914;48.178;11.716;2022-12-18T04:43:25;-4.00;99.90
26164;DHT22;13914;48.178;11.716;2022-12-18T04:45:50;-4.00;99.90
26164;DHT22;13914;48.178;11.716;2022-12-18T04:48:16;-4.00;99.90
26164;DHT22;13914;48.178;11.716;2022-12-18T04:50:42;-4.00;99.90
26164;DHT22;13914;48.178;11.716;2022-12-18T04:53:07;-4.00;99.90
26164;DHT22;13914;48.178;11.716;2022-12-18T04:55:33;-4.00;99.90
26164;DHT22;13914;48.178;11.716;2022-12-18T04:57:59;-4.00;99.90
26164;DHT22;13914;48.178;11.716;2022-12-18T05:00:24;-4.00;99.90
26164;DHT22;13914;48.178;11.716;2022-12-18T05:02:50;-4.00;99.90
26164;DHT22;13914;48.178;11.716;2022-12-18T05:05:16;-4.00;99.90
26164;DHT22;13914;48.178;11.716;2022-12-18T05:07:41;-4.00;99.90
26164;DHT22;13914;48.178;11.716;2022-12-18T05:10:07;-4.00;99.90
26164;DHT22;13914;48.178;11.716;2022-12-18T05:12:33;-4.00;99.90
26164;DHT22;13914;48.178;11.716;2022-12-18T05:14:58;-4.00;99.90
26164;DHT22;13914;48.178;11.716;2022-12-18T05:17:24;-4.00;99.90
26164;DHT22;13914;48.178;11.716;2022-12-18T05:19:50;-4.00;99.90
26164;DHT22;13914;48.178;11.716;2022-12-18T05:22:15;-4.00;99.90
26164;DHT22;13914;48.178;11.716;2022-12-18T05:24:41;-4.00;99.90
26164;DHT22;13914;48.178;11.716;2022-12-18T05:27:07;-4.00;99.90
26164;DHT22;13914;48.178;11.716;2022-12-18T05:29:32;-4.00;99.90
26164;DHT22;13914;48.178;11.716;2022-12-18T05:31:58;-4.00;99.90
26164;DHT22;13914;48.178;11.716;2022-12-18T05:34:24;-4.00;99.90
26164;DHT22;13914;48.178;11.716;2022-12-18T05:36:49;-4.00;99.90
26164;DHT22;13914;48.178;11.716;2022-12-18T05:39:15;-4.00;99.90
26164;DHT22;13914;48.178;11.716;2022-12-18T05:41:41;-4.00;99.90
26164;DHT22;13914;48.178;11.716;2022-12-18T05:44:07;-4.00;99.90
26164;DHT22;13914;48.178;11.716;2022-12-18T05:46:32;-4.00;99.90
26164;DHT22;13914;48.178;11.716;2022-12-18T05:48:59;-4.00;99.90
26164;DHT22;13914;48.178;11.716;2022-12-18T05:51:26;-4.00;99.90
26164;DHT22;13914;48.178;11.716;2022-12-18T05:53:52;-4.00;99.90
26164;DHT22;13914;48.178;11.716;2022-12-18T05:56:21;-4.00;99.90
26164;DHT22;13914;48.178;11.716;2022-12-18T05:58:50;-4.00;99.90
26164;DHT22;13914;48.178;11.716;2022-12-18T06:01:17;-4.00;99.90
26164;DHT22;13914;48.178;11.716;2022-12-18T06:03:45;-4.00;99.90
26164;DHT22;13914;48.178;11.716;2022-12-18T06:06:14;-3.90;99.90
26164;DHT22;13914;48.178;11.716;2022-12-18T06:08:40;-4.00;99.90
26164;DHT22;13914;48.178;11.716;2022-12-18T06:11:06;-4.00;99.90
26164;DHT22;13914;48.178;11.716;2022-12-18T06:13:31;-4.00;99.90
26164;DHT22;13914;48.178;11.716;2022-12-18T06:15:57;-4.00;99.90
26164;DHT22;13914;48.178;11.716;2022-12-18T06:18:23;-4.00;99.90
26164;DHT22;13914;48.178;11.716;2022-12-18T06:20:55;-4.00;99.90
26164;DHT22;13914;48.178;11.716;2022-12-18T06:23:21;-4.00;99.90
26164;DHT22;13914;48.178;11.716;2022-12-18T06:25:47;-4.00;99.90
26164;DHT22;13914;48.178;11.716;2022-12-18T06:28:13;-4.00;99.90
26164;DHT22;13914;48.178;11.716;2022-12-18T06:30:39;-4.00;99.90
26164;DHT22;13914;48.178;11.716;2022-12-18T06:33:04;-4.00;99.90
26164;DHT22;13914;48.178;11.716;2022-12-18T06:35:31;-4.00;99.90
26164;DHT22;13914;48.178;11.716;2022-12-18T06:37:57;-4.00;99.90
26164;DHT22;13914;48.178;11.716;2022-12-18T06:40:23;-4.00;99.90
26164;DHT22;13914;48.178;11.716;2022-12-18T06:42:48;-4.00;99.90
26164;DHT22;13914;48.178;11.716;2022-12-18T06:45:14;-4.00;99.90
26164;DHT22;13914;48.178;11.716;2022-12-18T06:47:40;-4.00;99.90
26164;DHT22;13914;48.178;11.716;2022-12-18T06:50:05;-4.00;99.90
26164;DHT22;13914;48.178;11.716;2022-12-18T06:52:32;-4.00;99.90
26164;DHT22;13914;48.178;11.716;2022-12-18T06:54:58;-4.00;99.90
26164;DHT22;13914;48.178;11.716;2022-12-18T06:57:24;-4.00;99.90
26164;DHT22;13914;48.178;11.716;2022-12-18T06:59:50;-4.00;99.90
26164;DHT22;13914;48.178;11.716;2022-12-18T07:02:16;-4.00;99.90
26164;DHT22;13914;48.178;11.716;2022-12-18T07:04:41;-4.00;99.90
26164;DHT22;13914;48.178;11.716;2022-12-18T07:07:07;-4.00;99.90
26164;DHT22;13914;48.178;11.716;2022-12-18T07:09:33;-4.00;99.90
26164;DHT22;13914;48.178;11.716;2022-12-18T07:11:58;-4.00;99.90
26164;DHT22;13914;48.178;11.716;2022-12-18T07:14:24;-4.00;99.90
26164;DHT22;13914;48.178;11.716;2022-12-18T07:16:50;-4.00;99.90
26164;DHT22;13914;48.178;11.716;2022-12-18T07:19:15;-4.00;99.90
26164;DHT22;13914;48.178;11.716;2022-12-18T07:21:41;-4.00;99.90
26164;DHT22;13914;48.178;11.716;2022-12-18T07:24:07;-4.00;99.90
26164;DHT22;13914;48.178;11.716;2022-12-18T07:26:33;-4.00;99.90
26164;DHT22;13914;48.178;11.716;2022-12-18T07:28:58;-4.00;99.90
26164;DHT22;13914;48.178;11.716;2022-12-18T07:31:24;-4.00;99.90
26164;DHT22;13914;48.178;11.716;2022-12-18T07:33:51;-4.00;99.90
26164;DHT22;13914;48.178;11.716;2022-12-18T07:36:17;-4.00;99.90
26164;DHT22;13914;48.178;11.716;2022-12-18T07:38:43;-4.00;99.90
26164;DHT22;13914;48.178;11.716;2022-12-18T07:41:11;-4.00;99.90
26164;DHT22;13914;48.178;11.716;2022-12-18T07:43:38;-4.00;99.90
26164;DHT22;13914;48.178;11.716;2022-12-18T07:46:04;-4.00;99.90
26164;DHT22;13914;48.178;11.716;2022-12-18T07:48:31;-4.00;99.90
26164;DHT22;13914;48.178;11.716;2022-12-18T07:51:00;-4.00;99.90
26164;DHT22;13914;48.178;11.716;2022-12-18T07:53:28;-4.00;99.90
26164;DHT22;13914;48.178;11.716;2022-12-18T07:55:57;-4.00;99.90
26164;DHT22;13914;48.178;11.716;2022-12-18T07:58:24;-4.00;99.90
26164;DHT22;13914;48.178;11.716;2022-12-18T08:00:50;-4.00;99.90
26164;DHT22;13914;48.178;11.716;2022-12-18T08:03:16;-4.00;99.90
26164;DHT22;13914;48.178;11.716;2022-12-18T08:05:41;-4.00;99.90
26164;DHT22;13914;48.178;11.716;2022-12-18T08:08:07;-4.00;99.90
26164;DHT22;13914;48.178;11.716;2022-12-18T08:10:33;-4.00;99.90
26164;DHT22;13914;48.178;11.716;2022-12-18T08:12:58;-3.90;99.90
26164;DHT22;13914;48.178;11.716;2022-12-18T08:15:24;-3.90;99.90
26164;DHT22;13914;48.178;11.716;2022-12-18T08:17:50;-3.90;99.90
26164;DHT22;13914;48.178;11.716;2022-12-18T08:20:15;-3.90;99.90
26164;DHT22;13914;48.178;11.716;2022-12-18T08:22:43;-3.90;99.90
26164;DHT22;13914;48.178;11.716;2022-12-18T08:25:09;-3.90;99.90
26164;DHT22;13914;48.178;11.716;2022-12-18T08:27:35;-3.90;99.90
26164;DHT22;13914;48.178;11.716;2022-12-18T08:30:01;-3.90;99.90
26164;DHT22;13914;48.178;11.716;2022-12-18T08:32:29;-3.80;99.90
26164;DHT22;13914;48.178;11.716;2022-12-18T08:34:55;-3.90;99.90
26164;DHT22;13914;48.178;11.716;2022-12-18T08:37:20;-3.80;99.90
26164;DHT22;13914;48.178;11.716;2022-12-18T08:39:46;-3.80;99.90
26164;DHT22;13914;48.178;11.716;2022-12-18T08:42:12;-3.80;99.90
26164;DHT22;13914;48.178;11.716;2022-12-18T08:44:56;-3.80;99.90
26164;DHT22;13914;48.178;11.716;2022-12-18T08:47:22;-3.80;99.90
26164;DHT22;13914;48.178;11.716;2022-12-18T08:49:47;-3.80;99.90
26164;DHT22;13914;48.178;11.716;2022-12-18T08:52:16;-3.80;99.90
26164;DHT22;13914;48.178;11.716;2022-12-18T08:54:42;-3.70;99.90
26164;DHT22;13914;48.178;11.716;2022-12-18T08:57:08;-3.70;99.90
26164;DHT22;13914;48.178;11.716;2022-12-18T08:59:33;-3.70;99.90
26164;DHT22;13914;48.178;11.716;2022-12-18T09:01:59;-3.70;99.90
26164;DHT22;13914;48.178;11.716;2022-12-18T09:04:25;-3.70;99.90
26164;DHT22;13914;48.178;11.716;2022-12-18T09:06:50;-3.70;99.90
26164;DHT22;13914;48.178;11.716;2022-12-18T09:09:16;-3.70;99.90
26164;DHT22;13914;48.178;11.716;2022-12-18T09:11:42;-3.70;99.90
26164;DHT22;13914;48.178;11.716;2022-12-18T09:14:08;-3.60;99.90
26164;DHT22;13914;48.178;11.716;2022-12-18T09:16:34;-3.60;99.90
26164;DHT22;13914;48.178;11.716;2022-12-18T09:19:01;-3.60;99.90
26164;DHT22;13914;48.178;11.716;2022-12-18T09:21:28;-3.50;99.90
26164;DHT22;13914;48.178;11.716;2022-12-18T09:23:56;-3.50;99.90
26164;DHT22;13914;48.178;11.716;2022-12-18T09:26:22;-3.50;99.90
26164;DHT22;13914;48.178;11.716;2022-12-18T09:28:48;-3.50;99.90
26164;DHT22;13914;48.178;11.716;2022-12-18T09:31:14;-3.50;99.90
26164;DHT22;13914;48.178;11.716;2022-12-18T09:33:41;-3.50;99.90
26164;DHT22;13914;48.178;11.716;2022-12-18T09:36:08;-3.50;99.90
26164;DHT22;13914;48.178;11.716;2022-12-18T09:38:34;-3.40;99.90
26164;DHT22;13914;48.178;11.716;2022-12-18T09:43:49;-3.40;99.90
26164;DHT22;13914;48.178;11.716;2022-12-18T09:46:17;-3.40;99.90
26164;DHT22;13914;48.178;11.716;2022-12-18T09:48:47;-3.30;99.90
26164;DHT22;13914;48.178;11.716;2022-12-18T09:51:18;-3.30;99.90
26164;DHT22;13914;48.178;11.716;2022-12-18T09:53:52;-3.30;99.90
26164;DHT22;13914;48.178;11.716;2022-12-18T09:56:21;-3.30;99.90
26164;DHT22;13914;48.178;11.716;2022-12-18T09:59:01;-3.30;99.90
26164;DHT22;13914;48.178;11.716;2022-12-18T10:01:28;-3.30;99.90
26164;DHT22;13914;48.178;11.716;2022-12-18T10:03:55;-3.20;99.90
26164;DHT22;13914;48.178;11.716;2022-12-18T10:09:05;-3.20;99.90
26164;DHT22;13914;48.178;11.716;2022-12-18T10:11:38;-3.20;99.90
26164;DHT22;13914;48.178;11.716;2022-12-18T10:14:11;-3.20;99.90
26164;DHT22;13914;48.178;11.716;2022-12-18T10:19:30;-3.10;99.90
26164;DHT22;13914;48.178;11.716;2022-12-18T10:27:39;-3.10;99.90
26164;DHT22;13914;48.178;11.716;2022-12-18T10:30:20;-3.10;99.90
26164;DHT22;13914;48.178;11.716;2022-12-18T10:32:47;-3.00;99.90
26164;DHT22;13914;48.178;11.716;2022-12-18T10:35:23;-3.00;99.90
26164;DHT22;13914;48.178;11.716;2022-12-18T10:44:15;-2.90;99.90
26164;DHT22;13914;48.178;11.716;2022-12-18T10:46:46;-2.90;99.90
26164;DHT22;13914;48.178;11.716;2022-12-18T10:49:21;-2.90;99.90
26164;DHT22;13914;48.178;11.716;2022-12-18T10:54:46;-2.80;99.90
26164;DHT22;13914;48.178;11.716;2022-12-18T10:57:15;-2.80;99.90
26164;DHT22;13914;48.178;11.716;2022-12-18T10:59:55;-2.80;99.90
26164;DHT22;13914;48.178;11.716;2022-12-18T11:02:33;-2.70;99.90
26164;DHT22;13914;48.178;11.716;2022-12-18T11:05:00;-2.70;99.90
26164;DHT22;13914;48.178;11.716;2022-12-18T11:07:26;-2.70;99.90
26164;DHT22;13914;48.178;11.716;2022-12-18T11:10:15;-2.70;99.90
26164;DHT22;13914;48.178;11.716;2022-12-18T11:12:42;-2.60;99.90
26164;DHT22;13914;48.178;11.716;2022-12-18T11:15:26;-2.60;99.90
26164;DHT22;13914;48.178;11.716;2022-12-18T11:17:53;-2.60;99.90
26164;DHT22;13914;48.178;11.716;2022-12-18T11:20:20;-2.60;99.90
26164;DHT22;13914;48.178;11.716;2022-12-18T11:22:57;-2.60;99.90
26164;DHT22;13914;48.178;11.716;2022-12-18T11:25:28;-2.50;99.90
26164;DHT22;13914;48.178;11.716;2022-12-18T11:27:55;-2.50;99.90
26164;DHT22;13914;48.178;11.716;2022-12-18T11:32:52;-2.50;99.90
26164;DHT22;13914;48.178;11.716;2022-12-18T11:40:45;-2.40;99.90
26164;DHT22;13914;48.178;11.716;2022-12-18T11:43:16;-2.40;99.90
26164;DHT22;13914;48.178;11.716;2022-12-18T11:45:53;-2.30;99.90
26164;DHT22;13914;48.178;11.716;2022-12-18T11:48:25;-2.30;99.90
26164;DHT22;13914;48.178;11.716;2022-12-18T11:50:57;-2.30;99.90
26164;DHT22;13914;48.178;11.716;2022-12-18T11:53:27;-2.30;99.90
26164;DHT22;13914;48.178;11.716;2022-12-18T11:58:45;-2.20;99.90
26164;DHT22;13914;48.178;11.716;2022-12-18T12:04:01;-2.20;99.90
26164;DHT22;13914;48.178;11.716;2022-12-18T12:09:57;-2.20;99.90
26164;DHT22;13914;48.178;11.716;2022-12-18T12:26:12;-2.10;99.80
26164;DHT22;13914;48.178;11.716;2022-12-18T12:28:51;-2.00;99.80
26164;DHT22;13914;48.178;11.716;2022-12-18T12:36:53;-2.00;99.80
26164;DHT22;13914;48.178;11.716;2022-12-18T12:39:54;-2.00;99.80
26164;DHT22;13914;48.178;11.716;2022-12-18T12:42:31;-2.00;99.90
26164;DHT22;13914;48.178;11.716;2022-12-18T12:45:39;-2.00;99.80
26164;DHT22;13914;48.178;11.716;2022-12-18T12:48:15;-2.00;99.80
26164;DHT22;13914;48.178;11.716;2022-12-18T12:50:44;-1.90;99.80
26164;DHT22;13914;48.178;11.716;2022-12-18T12:53:16;-2.00;99.80
26164;DHT22;13914;48.178;11.716;2022-12-18T12:55:47;-2.00;99.80
26164;DHT22;13914;48.178;11.716;2022-12-18T13:00:53;-2.00;99.80
26164;DHT22;13914;48.178;11.716;2022-12-18T13:03:35;-2.00;99.80
26164;DHT22;13914;48.178;11.716;2022-12-18T13:09:23;-1.90;99.80
26164;DHT22;13914;48.178;11.716;2022-12-18T13:11:49;-1.90;99.80
26164;DHT22;13914;48.178;11.716;2022-12-18T13:14:34;-1.90;99.80
26164;DHT22;13914;48.178;11.716;2022-12-18T13:19:48;-1.90;99.80
26164;DHT22;13914;48.178;11.716;2022-12-18T13:22:22;-1.90;99.80
26164;DHT22;13914;48.178;11.716;2022-12-18T13:24:49;-1.90;99.70
26164;DHT22;13914;48.178;11.716;2022-12-18T13:40:57;-1.90;99.80
26164;DHT22;13914;48.178;11.716;2022-12-18T13:43:27;-1.90;99.80
26164;DHT22;13914;48.178;11.716;2022-12-18T13:48:34;-1.90;99.70
26164;DHT22;13914;48.178;11.716;2022-12-18T13:51:08;-1.90;99.60
26164;DHT22;13914;48.178;11.716;2022-12-18T13:53:36;-1.90;99.70
26164;DHT22;13914;48.178;11.716;2022-12-18T13:56:05;-1.90;99.70
26164;DHT22;13914;48.178;11.716;2022-12-18T13:58:31;-1.90;99.70
26164;DHT22;13914;48.178;11.716;2022-12-18T14:00:57;-1.90;99.80
26164;DHT22;13914;48.178;11.716;2022-12-18T14:03:26;-1.90;99.70
26164;DHT22;13914;48.178;11.716;2022-12-18T14:06:03;-1.90;99.70
26164;DHT22;13914;48.178;11.716;2022-12-18T14:08:40;-1.90;99.70
26164;DHT22;13914;48.178;11.716;2022-12-18T14:11:07;-2.00;99.50
26164;DHT22;13914;48.178;11.716;2022-12-18T14:13:43;-2.00;99.70
26164;DHT22;13914;48.178;11.716;2022-12-18T14:16:11;-2.00;99.70
26164;DHT22;13914;48.178;11.716;2022-12-18T14:18:50;-2.00;99.70
26164;DHT22;13914;48.178;11.716;2022-12-18T14:21:25;-2.00;99.70
26164;DHT22;13914;48.178;11.716;2022-12-18T14:26:44;-2.10;99.70
26164;DHT22;13914;48.178;11.716;2022-12-18T14:32:06;-2.10;99.80
26164;DHT22;13914;48.178;11.716;2022-12-18T14:34:43;-2.10;99.80
26164;DHT22;13914;48.178;11.716;2022-12-18T14:37:13;-2.10;99.80
26164;DHT22;13914;48.178;11.716;2022-12-18T14:39:51;-2.10;99.80
26164;DHT22;13914;48.178;11.716;2022-12-18T14:42:22;-2.10;99.70
26164;DHT22;13914;48.178;11.716;2022-12-18T14:44:48;-2.20;99.70
26164;DHT22;13914;48.178;11.716;2022-12-18T14:47:14;-2.20;99.80
26164;DHT22;13914;48.178;11.716;2022-12-18T14:49:41;-2.20;99.70
26164;DHT22;13914;48.178;11.716;2022-12-18T14:52:22;-2.20;99.80
26164;DHT22;13914;48.178;11.716;2022-12-18T14:54:52;-2.20;99.80
26164;DHT22;13914;48.178;11.716;2022-12-18T14:57:22;-2.20;99.80
26164;DHT22;13914;48.178;11.716;2022-12-18T14:59:49;-2.30;99.90
26164;DHT22;13914;48.178;11.716;2022-12-18T15:02:18;-2.30;99.80
26164;DHT22;13914;48.178;11.716;2022-12-18T15:04:46;-2.30;99.80
26164;DHT22;13914;48.178;11.716;2022-12-18T15:07:19;-2.30;99.80
26164;DHT22;13914;48.178;11.716;2022-12-18T15:23:14;-2.40;99.90
26164;DHT22;13914;48.178;11.716;2022-12-18T15:26:04;-2.50;99.80
26164;DHT22;13914;48.178;11.716;2022-12-18T15:33:37;-2.50;99.80
26164;DHT22;13914;48.178;11.716;2022-12-18T15:36:08;-2.50;99.70
26164;DHT22;13914;48.178;11.716;2022-12-18T15:38:35;-2.50;99.80
26164;DHT22;13914;48.178;11.716;2022-12-18T15:41:01;-2.60;99.80
26164;DHT22;13914;48.178;11.716;2022-12-18T15:43:27;-2.60;99.80
26164;DHT22;13914;48.178;11.716;2022-12-18T15:46:00;-2.60;99.90
26164;DHT22;13914;48.178;11.716;2022-12-18T15:48:34;-2.60;99.90
26164;DHT22;13914;48.178;11.716;2022-12-18T15:51:02;-2.60;99.90
26164;DHT22;13914;48.178;11.716;2022-12-18T15:53:29;-2.70;99.90
26164;DHT22;13914;48.178;11.716;2022-12-18T15:55:56;-2.70;99.80
26164;DHT22;13914;48.178;11.716;2022-12-18T15:58:41;-2.70;99.90
26164;DHT22;13914;48.178;11.716;2022-12-18T16:01:07;-2.70;99.90
26164;DHT22;13914;48.178;11.716;2022-12-18T16:03:34;-2.70;99.90
26164;DHT22;13914;48.178;11.716;2022-12-18T16:06:00;-2.80;99.90
26164;DHT22;13914;48.178;11.716;2022-12-18T16:08:28;-2.80;99.90
26164;DHT22;13914;48.178;11.716;2022-12-18T16:10:55;-2.70;99.90
26164;DHT22;13914;48.178;11.716;2022-12-18T16:13:21;-2.80;99.90
26164;DHT22;13914;48.178;11.716;2022-12-18T16:15:47;-2.80;99.90
26164;DHT22;13914;48.178;11.716;2022-12-18T16:18:13;-2.80;99.90
26164;DHT22;13914;48.178;11.716;2022-12-18T16:20:39;-2.80;99.90
26164;DHT22;13914;48.178;11.716;2022-12-18T16:23:05;-2.80;99.90
26164;DHT22;13914;48.178;11.716;2022-12-18T16:25:31;-2.80;99.90
26164;DHT22;13914;48.178;11.716;2022-12-18T16:27:57;-2.90;99.90
26164;DHT22;13914;48.178;11.716;2022-12-18T16:30:24;-2.90;99.90
26164;DHT22;13914;48.178;11.716;2022-12-18T16:32:59;-2.90;99.80
26164;DHT22;13914;48.178;11.716;2022-12-18T16:35:25;-2.90;99.90
26164;DHT22;13914;48.178;11.716;2022-12-18T16:37:51;-2.90;99.90
26164;DHT22;13914;48.178;11.716;2022-12-18T16:40:17;-3.00;99.90
26164;DHT22;13914;48.178;11.716;2022-12-18T16:42:44;-2.90;99.90
26164;DHT22;13914;48.178;11.716;2022-12-18T16:45:15;-3.00;99.90
26164;DHT22;13914;48.178;11.716;2022-12-18T16:47:42;-3.00;99.90
26164;DHT22;13914;48.178;11.716;2022-12-18T16:50:08;-3.00;99.80
26164;DHT22;13914;48.178;11.716;2022-12-18T16:52:34;-3.00;99.90
26164;DHT22;13914;48.178;11.716;2022-12-18T16:55:00;-3.00;99.90
26164;DHT22;13914;48.178;11.716;2022-12-18T16:57:26;-3.00;99.90
26164;DHT22;13914;48.178;11.716;2022-12-18T16:59:52;-3.10;99.80
26164;DHT22;13914;48.178;11.716;2022-12-18T17:02:19;-3.10;99.90
26164;DHT22;13914;48.178;11.716;2022-12-18T17:04:48;-3.10;99.90
26164;DHT22;13914;48.178;11.716;2022-12-18T17:07:14;-3.10;99.90
26164;DHT22;13914;48.178;11.716;2022-12-18T17:09:40;-3.10;99.90
26164;DHT22;13914;48.178;11.716;2022-12-18T17:12:07;-3.10;99.90
26164;DHT22;13914;48.178;11.716;2022-12-18T17:14:33;-3.10;99.90
26164;DHT22;13914;48.178;11.716;2022-12-18T17:16:59;-3.20;99.90
26164;DHT22;13914;48.178;11.716;2022-12-18T17:19:25;-3.20;99.80
26164;DHT22;13914;48.178;11.716;2022-12-18T17:21:51;-3.20;99.90
26164;DHT22;13914;48.178;11.716;2022-12-18T17:24:18;-3.20;99.90
26164;DHT22;13914;48.178;11.716;2022-12-18T17:26:44;-3.20;99.90
26164;DHT22;13914;48.178;11.716;2022-12-18T17:29:14;-3.20;99.90
26164;DHT22;13914;48.178;11.716;2022-12-18T17:31:41;-3.20;99.90
26164;DHT22;13914;48.178;11.716;2022-12-18T17:34:08;-3.30;99.90
26164;DHT22;13914;48.178;11.716;2022-12-18T17:36:34;-3.30;99.90